sensor_id;sensor_type;location;lat;lon;timestamp;P1;durP1;ratioP1;P2;durP2;ratioP2
37777;SDS011;23615;51.506;7.678;2022-09-25T00:01:09;14.32;;;12.80;;
37777;SDS011;23615;51.506;7.678;2022-09-25T00:03:35;15.13;;;12.38;;
37777;SDS011;23615;51.506;7.678;2022-09-25T00:06:03;13.43;;;12.03;;
37777;SDS011;23615;51.506;7.678;2022-09-25T00:08:39;16.05;;;13.32;;
37777;SDS011;23615;51.506;7.678;2022-09-25T00:11:08;14.63;;;13.13;;
37777;SDS011;23615;51.506;7.678;2022-09-25T00:13:38;14.98;;;12.35;;
37777;SDS011;23615;51.506;7.678;2022-09-25T00:16:05;13.25;;;11.55;;
37777;SDS011;23615;51.506;7.678;2022-09-25T00:18:33;12.77;;;11.10;;
37777;SDS011;23615;51.506;7.678;2022-09-25T00:21:16;14.25;;;12.45;;
37777;SDS011;23615;51.506;7.678;2022-09-25T00:23:42;13.43;;;11.70;;
37777;SDS011;23615;51.506;7.678;2022-09-25T00:26:10;10.77;;;9.67;;
37777;SDS011;23615;51.506;7.678;2022-09-25T00:28:36;11.25;;;10.02;;
37777;SDS011;23615;51.506;7.678;2022-09-25T00:31:03;12.43;;;11.07;;
37777;SDS011;23615;51.506;7.678;2022-09-25T00:33:31;14.87;;;13.17;;
37777;SDS011;23615;51.506;7.678;2022-09-25T00:36:07;14.13;;;11.95;;
37777;SDS011;23615;51.506;7.678;2022-09-25T00:38:35;15.30;;;11.82;;
37777;SDS011;23615;51.506;7.678;2022-09-25T00:41:01;14.23;;;12.05;;
37777;SDS011;23615;51.506;7.678;2022-09-25T00:43:37;13.32;;;10.55;;
37777;SDS011;23615;51.506;7.678;2022-09-25T00:46:10;14.63;;;13.02;;
37777;SDS011;23615;51.506;7.678;2022-09-25T00:48:52;12.98;;;10.27;;
37777;SDS011;23615;51.506;7.678;2022-09-25T00:51:23;18.00;;;14.80;;
37777;SDS011;23615;51.506;7.678;2022-09-25T00:53:53;18.40;;;13.25;;
37777;SDS011;23615;51.506;7.678;2022-09-25T00:56:22;12.68;;;10.77;;
37777;SDS011;23615;51.506;7.678;2022-09-25T00:58:48;13.48;;;10.95;;
37777;SDS011;23615;51.506;7.678;2022-09-25T01:01:14;13.13;;;11.27;;
37777;SDS011;23615;51.506;7.678;2022-09-25T01:03:40;13.60;;;10.98;;
37777;SDS011;23615;51.506;7.678;2022-09-25T01:06:06;12.83;;;9.90;;
37777;SDS011;23615;51.506;7.678;2022-09-25T01:08:33;11.87;;;9.80;;
37777;SDS011;23615;51.506;7.678;2022-09-25T01:10:59;12.25;;;10.07;;
37777;SDS011;23615;51.506;7.678;2022-09-25T01:13:25;9.30;;;7.40;;
37777;SDS011;23615;51.506;7.678;2022-09-25T01:16:02;8.52;;;7.25;;
37777;SDS011;23615;51.506;7.678;2022-09-25T01:30:02;9.77;;;7.23;;
37777;SDS011;23615;51.506;7.678;2022-09-25T01:32:37;8.23;;;6.18;;
37777;SDS011;23615;51.506;7.678;2022-09-25T01:35:15;7.97;;;5.75;;
37777;SDS011;23615;51.506;7.678;2022-09-25T01:37:56;9.95;;;6.70;;
37777;SDS011;23615;51.506;7.678;2022-09-25T01:40:28;8.18;;;5.10;;
37777;SDS011;23615;51.506;7.678;2022-09-25T01:45:42;9.93;;;4.90;;
37777;SDS011;23615;51.506;7.678;2022-09-25T01:48:15;6.32;;;3.97;;
37777;SDS011;23615;51.506;7.678;2022-09-25T01:50:48;5.82;;;3.72;;
37777;SDS011;23615;51.506;7.678;2022-09-25T01:53:20;5.97;;;3.88;;
37777;SDS011;23615;51.506;7.678;2022-09-25T01:55:54;8.57;;;4.40;;
37777;SDS011;23615;51.506;7.678;2022-09-25T01:58:35;4.50;;;3.37;;
37777;SDS011;23615;51.506;7.678;2022-09-25T02:01:10;8.95;;;3.70;;
37777;SDS011;23615;51.506;7.678;2022-09-25T02:03:41;5.78;;;3.28;;
37777;SDS011;23615;51.506;7.678;2022-09-25T02:06:12;5.90;;;2.90;;
37777;SDS011;23615;51.506;7.678;2022-09-25T02:09:03;4.30;;;2.25;;
37777;SDS011;23615;51.506;7.678;2022-09-25T02:11:34;4.68;;;2.72;;
37777;SDS011;23615;51.506;7.678;2022-09-25T02:14:08;3.88;;;2.13;;
37777;SDS011;23615;51.506;7.678;2022-09-25T02:16:39;3.05;;;1.67;;
37777;SDS011;23615;51.506;7.678;2022-09-25T02:19:11;3.37;;;1.77;;
37777;SDS011;23615;51.506;7.678;2022-09-25T02:22:04;5.65;;;2.38;;
37777;SDS011;23615;51.506;7.678;2022-09-25T02:24:38;2.80;;;1.90;;
37777;SDS011;23615;51.506;7.678;2022-09-25T02:27:11;4.73;;;2.33;;
37777;SDS011;23615;51.506;7.678;2022-09-25T02:29:36;6.83;;;2.60;;
37777;SDS011;23615;51.506;7.678;2022-09-25T02:32:07;4.07;;;1.80;;
37777;SDS011;23615;51.506;7.678;2022-09-25T02:34:35;4.97;;;2.57;;
37777;SDS011;23615;51.506;7.678;2022-09-25T02:37:01;5.72;;;1.90;;
37777;SDS011;23615;51.506;7.678;2022-09-25T02:39:27;3.28;;;1.65;;
37777;SDS011;23615;51.506;7.678;2022-09-25T02:57:51;5.65;;;1.10;;
37777;SDS011;23615;51.506;7.678;2022-09-25T03:00:25;3.67;;;1.58;;
37777;SDS011;23615;51.506;7.678;2022-09-25T03:02:52;3.00;;;1.07;;
37777;SDS011;23615;51.506;7.678;2022-09-25T03:05:20;3.07;;;1.07;;
37777;SDS011;23615;51.506;7.678;2022-09-25T03:07:47;5.03;;;1.50;;
37777;SDS011;23615;51.506;7.678;2022-09-25T03:10:31;2.58;;;1.05;;
37777;SDS011;23615;51.506;7.678;2022-09-25T03:13:21;3.25;;;1.10;;
37777;SDS011;23615;51.506;7.678;2022-09-25T03:15:51;5.82;;;1.85;;
37777;SDS011;23615;51.506;7.678;2022-09-25T03:18:22;7.55;;;2.30;;
37777;SDS011;23615;51.506;7.678;2022-09-25T03:20:49;6.10;;;1.38;;
37777;SDS011;23615;51.506;7.678;2022-09-25T03:23:15;2.53;;;0.97;;
37777;SDS011;23615;51.506;7.678;2022-09-25T03:25:40;4.90;;;1.90;;
37777;SDS011;23615;51.506;7.678;2022-09-25T03:28:07;2.30;;;1.00;;
37777;SDS011;23615;51.506;7.678;2022-09-25T03:30:34;4.93;;;1.35;;
37777;SDS011;23615;51.506;7.678;2022-09-25T03:33:02;4.50;;;1.90;;
37777;SDS011;23615;51.506;7.678;2022-09-25T03:35:27;4.63;;;1.60;;
37777;SDS011;23615;51.506;7.678;2022-09-25T03:37:53;3.33;;;0.90;;
37777;SDS011;23615;51.506;7.678;2022-09-25T03:40:18;4.35;;;1.30;;
37777;SDS011;23615;51.506;7.678;2022-09-25T03:42:44;4.18;;;0.90;;
37777;SDS011;23615;51.506;7.678;2022-09-25T03:45:09;3.00;;;0.60;;
37777;SDS011;23615;51.506;7.678;2022-09-25T03:47:35;3.95;;;0.88;;
37777;SDS011;23615;51.506;7.678;2022-09-25T03:50:00;4.27;;;1.17;;
37777;SDS011;23615;51.506;7.678;2022-09-25T03:52:26;3.97;;;0.50;;
37777;SDS011;23615;51.506;7.678;2022-09-25T03:54:51;3.40;;;1.00;;
37777;SDS011;23615;51.506;7.678;2022-09-25T03:57:16;1.43;;;0.40;;
37777;SDS011;23615;51.506;7.678;2022-09-25T03:59:41;3.40;;;0.83;;
37777;SDS011;23615;51.506;7.678;2022-09-25T04:02:06;4.00;;;0.87;;
37777;SDS011;23615;51.506;7.678;2022-09-25T04:04:32;5.25;;;1.02;;
37777;SDS011;23615;51.506;7.678;2022-09-25T04:06:57;3.53;;;0.80;;
37777;SDS011;23615;51.506;7.678;2022-09-25T04:09:23;2.83;;;0.73;;
37777;SDS011;23615;51.506;7.678;2022-09-25T04:11:48;3.47;;;1.10;;
37777;SDS011;23615;51.506;7.678;2022-09-25T04:14:14;3.20;;;0.80;;
37777;SDS011;23615;51.506;7.678;2022-09-25T04:16:39;5.27;;;1.23;;
37777;SDS011;23615;51.506;7.678;2022-09-25T04:19:04;4.38;;;1.35;;
37777;SDS011;23615;51.506;7.678;2022-09-25T04:21:30;2.53;;;0.73;;
37777;SDS011;23615;51.506;7.678;2022-09-25T04:23:56;5.15;;;1.42;;
37777;SDS011;23615;51.506;7.678;2022-09-25T04:26:41;2.53;;;0.40;;
37777;SDS011;23615;51.506;7.678;2022-09-25T04:29:06;3.83;;;0.90;;
37777;SDS011;23615;51.506;7.678;2022-09-25T04:31:31;4.90;;;0.90;;
37777;SDS011;23615;51.506;7.678;2022-09-25T04:33:57;3.57;;;0.60;;
37777;SDS011;23615;51.506;7.678;2022-09-25T04:36:22;5.00;;;0.80;;
37777;SDS011;23615;51.506;7.678;2022-09-25T04:38:47;3.20;;;0.50;;
37777;SDS011;23615;51.506;7.678;2022-09-25T04:41:14;1.25;;;0.30;;
37777;SDS011;23615;51.506;7.678;2022-09-25T04:43:40;3.97;;;0.77;;
37777;SDS011;23615;51.506;7.678;2022-09-25T04:46:07;1.40;;;0.30;;
37777;SDS011;23615;51.506;7.678;2022-09-25T04:48:34;4.18;;;0.57;;
37777;SDS011;23615;51.506;7.678;2022-09-25T04:51:00;1.13;;;0.60;;
37777;SDS011;23615;51.506;7.678;2022-09-25T04:53:26;2.13;;;0.50;;
37777;SDS011;23615;51.506;7.678;2022-09-25T04:55:53;2.90;;;0.30;;
37777;SDS011;23615;51.506;7.678;2022-09-25T04:58:24;1.63;;;0.40;;
37777;SDS011;23615;51.506;7.678;2022-09-25T05:00:49;3.27;;;0.60;;
37777;SDS011;23615;51.506;7.678;2022-09-25T05:03:14;1.17;;;0.28;;
37777;SDS011;23615;51.506;7.678;2022-09-25T05:05:39;3.57;;;0.30;;
37777;SDS011;23615;51.506;7.678;2022-09-25T05:08:05;1.27;;;0.30;;
37777;SDS011;23615;51.506;7.678;2022-09-25T05:10:31;1.30;;;0.20;;
37777;SDS011;23615;51.506;7.678;2022-09-25T05:13:02;1.58;;;0.20;;
37777;SDS011;23615;51.506;7.678;2022-09-25T05:15:29;2.23;;;0.30;;
37777;SDS011;23615;51.506;7.678;2022-09-25T05:18:14;1.00;;;0.30;;
37777;SDS011;23615;51.506;7.678;2022-09-25T05:20:42;1.95;;;0.30;;
37777;SDS011;23615;51.506;7.678;2022-09-25T05:23:07;1.20;;;0.30;;
37777;SDS011;23615;51.506;7.678;2022-09-25T05:25:32;1.43;;;0.30;;
37777;SDS011;23615;51.506;7.678;2022-09-25T05:27:58;2.63;;;0.50;;
37777;SDS011;23615;51.506;7.678;2022-09-25T05:30:25;2.40;;;0.45;;
37777;SDS011;23615;51.506;7.678;2022-09-25T05:32:53;1.80;;;0.30;;
37777;SDS011;23615;51.506;7.678;2022-09-25T05:35:18;0.50;;;0.20;;
37777;SDS011;23615;51.506;7.678;2022-09-25T05:37:45;2.63;;;0.50;;
37777;SDS011;23615;51.506;7.678;2022-09-25T05:40:11;2.88;;;0.30;;
37777;SDS011;23615;51.506;7.678;2022-09-25T05:42:37;1.90;;;0.30;;
37777;SDS011;23615;51.506;7.678;2022-09-25T05:45:03;1.83;;;0.28;;
37777;SDS011;23615;51.506;7.678;2022-09-25T05:47:28;1.20;;;0.47;;
37777;SDS011;23615;51.506;7.678;2022-09-25T05:49:54;1.33;;;0.30;;
37777;SDS011;23615;51.506;7.678;2022-09-25T05:52:20;1.90;;;0.20;;
37777;SDS011;23615;51.506;7.678;2022-09-25T05:54:45;1.03;;;0.20;;
37777;SDS011;23615;51.506;7.678;2022-09-25T05:57:10;1.30;;;0.20;;
37777;SDS011;23615;51.506;7.678;2022-09-25T05:59:36;2.00;;;0.20;;
37777;SDS011;23615;51.506;7.678;2022-09-25T06:02:01;0.70;;;0.20;;
37777;SDS011;23615;51.506;7.678;2022-09-25T06:04:26;2.30;;;0.50;;
37777;SDS011;23615;51.506;7.678;2022-09-25T06:06:51;0.93;;;0.20;;
37777;SDS011;23615;51.506;7.678;2022-09-25T06:09:17;2.63;;;0.40;;
37777;SDS011;23615;51.506;7.678;2022-09-25T06:11:42;1.47;;;0.30;;
37777;SDS011;23615;51.506;7.678;2022-09-25T06:14:11;1.25;;;0.30;;
37777;SDS011;23615;51.506;7.678;2022-09-25T06:16:37;1.25;;;0.40;;
37777;SDS011;23615;51.506;7.678;2022-09-25T06:19:03;1.80;;;0.60;;
37777;SDS011;23615;51.506;7.678;2022-09-25T06:21:28;1.93;;;0.37;;
37777;SDS011;23615;51.506;7.678;2022-09-25T06:23:53;3.17;;;0.60;;
37777;SDS011;23615;51.506;7.678;2022-09-25T06:26:19;3.92;;;0.60;;
37777;SDS011;23615;51.506;7.678;2022-09-25T06:28:45;1.67;;;0.60;;
37777;SDS011;23615;51.506;7.678;2022-09-25T06:31:10;6.20;;;0.67;;
37777;SDS011;23615;51.506;7.678;2022-09-25T06:33:35;3.97;;;0.67;;
37777;SDS011;23615;51.506;7.678;2022-09-25T06:36:01;3.15;;;0.60;;
37777;SDS011;23615;51.506;7.678;2022-09-25T06:38:29;4.23;;;0.80;;
37777;SDS011;23615;51.506;7.678;2022-09-25T06:40:57;2.65;;;0.50;;
37777;SDS011;23615;51.506;7.678;2022-09-25T06:43:23;2.70;;;0.30;;
37777;SDS011;23615;51.506;7.678;2022-09-25T06:45:48;1.30;;;0.20;;
37777;SDS011;23615;51.506;7.678;2022-09-25T06:48:15;4.47;;;0.82;;
37777;SDS011;23615;51.506;7.678;2022-09-25T06:50:53;2.15;;;0.45;;
37777;SDS011;23615;51.506;7.678;2022-09-25T06:53:21;1.40;;;0.40;;
37777;SDS011;23615;51.506;7.678;2022-09-25T06:55:47;1.88;;;0.30;;
37777;SDS011;23615;51.506;7.678;2022-09-25T06:58:14;0.55;;;0.30;;
37777;SDS011;23615;51.506;7.678;2022-09-25T07:00:45;1.13;;;0.40;;
37777;SDS011;23615;51.506;7.678;2022-09-25T07:03:13;2.05;;;0.20;;
37777;SDS011;23615;51.506;7.678;2022-09-25T07:06:01;2.83;;;0.32;;
37777;SDS011;23615;51.506;7.678;2022-09-25T07:08:28;0.57;;;0.20;;
37777;SDS011;23615;51.506;7.678;2022-09-25T07:10:54;1.43;;;0.30;;
37777;SDS011;23615;51.506;7.678;2022-09-25T07:13:22;1.23;;;0.32;;
37777;SDS011;23615;51.506;7.678;2022-09-25T07:15:49;1.33;;;0.50;;
37777;SDS011;23615;51.506;7.678;2022-09-25T07:18:15;1.55;;;0.55;;
37777;SDS011;23615;51.506;7.678;2022-09-25T07:20:41;1.67;;;0.50;;
37777;SDS011;23615;51.506;7.678;2022-09-25T07:23:06;2.63;;;0.60;;
37777;SDS011;23615;51.506;7.678;2022-09-25T07:25:31;2.95;;;0.63;;
37777;SDS011;23615;51.506;7.678;2022-09-25T07:27:57;3.50;;;0.80;;
37777;SDS011;23615;51.506;7.678;2022-09-25T07:30:23;3.67;;;0.65;;
37777;SDS011;23615;51.506;7.678;2022-09-25T07:32:51;3.75;;;0.65;;
37777;SDS011;23615;51.506;7.678;2022-09-25T07:35:16;3.67;;;0.80;;
37777;SDS011;23615;51.506;7.678;2022-09-25T07:37:43;3.92;;;0.68;;
37777;SDS011;23615;51.506;7.678;2022-09-25T07:40:08;2.78;;;0.55;;
37777;SDS011;23615;51.506;7.678;2022-09-25T07:42:37;4.50;;;1.35;;
37777;SDS011;23615;51.506;7.678;2022-09-25T07:45:02;4.27;;;1.00;;
37777;SDS011;23615;51.506;7.678;2022-09-25T07:47:28;4.70;;;1.23;;
37777;SDS011;23615;51.506;7.678;2022-09-25T07:49:53;6.67;;;1.63;;
37777;SDS011;23615;51.506;7.678;2022-09-25T07:52:18;6.78;;;1.25;;
37777;SDS011;23615;51.506;7.678;2022-09-25T07:54:43;5.73;;;1.43;;
37777;SDS011;23615;51.506;7.678;2022-09-25T07:57:09;5.93;;;1.50;;
37777;SDS011;23615;51.506;7.678;2022-09-25T07:59:34;4.40;;;1.30;;
37777;SDS011;23615;51.506;7.678;2022-09-25T08:01:59;3.47;;;1.02;;
37777;SDS011;23615;51.506;7.678;2022-09-25T08:04:25;5.20;;;1.23;;
37777;SDS011;23615;51.506;7.678;2022-09-25T08:06:50;8.03;;;1.33;;
37777;SDS011;23615;51.506;7.678;2022-09-25T08:09:15;3.60;;;1.10;;
37777;SDS011;23615;51.506;7.678;2022-09-25T08:11:41;5.73;;;1.30;;
37777;SDS011;23615;51.506;7.678;2022-09-25T08:14:06;4.30;;;1.03;;
37777;SDS011;23615;51.506;7.678;2022-09-25T08:16:32;4.80;;;1.00;;
37777;SDS011;23615;51.506;7.678;2022-09-25T08:18:57;4.70;;;1.03;;
37777;SDS011;23615;51.506;7.678;2022-09-25T08:21:22;2.77;;;0.80;;
37777;SDS011;23615;51.506;7.678;2022-09-25T08:23:49;3.72;;;0.73;;
37777;SDS011;23615;51.506;7.678;2022-09-25T08:26:16;5.07;;;0.80;;
37777;SDS011;23615;51.506;7.678;2022-09-25T08:28:43;3.47;;;0.80;;
37777;SDS011;23615;51.506;7.678;2022-09-25T08:31:08;2.88;;;0.68;;
37777;SDS011;23615;51.506;7.678;2022-09-25T08:33:34;3.50;;;0.87;;
37777;SDS011;23615;51.506;7.678;2022-09-25T08:36:00;3.08;;;0.75;;
37777;SDS011;23615;51.506;7.678;2022-09-25T08:38:28;7.78;;;0.93;;
37777;SDS011;23615;51.506;7.678;2022-09-25T08:43:28;4.10;;;0.52;;
37777;SDS011;23615;51.506;7.678;2022-09-25T08:45:55;4.03;;;0.60;;
37777;SDS011;23615;51.506;7.678;2022-09-25T08:51:30;3.92;;;0.90;;
37777;SDS011;23615;51.506;7.678;2022-09-25T08:53:58;4.47;;;0.68;;
37777;SDS011;23615;51.506;7.678;2022-09-25T08:56:25;3.87;;;0.70;;
37777;SDS011;23615;51.506;7.678;2022-09-25T08:58:54;3.78;;;0.68;;
37777;SDS011;23615;51.506;7.678;2022-09-25T09:01:27;3.92;;;0.60;;
37777;SDS011;23615;51.506;7.678;2022-09-25T09:06:25;6.57;;;1.00;;
37777;SDS011;23615;51.506;7.678;2022-09-25T09:08:54;7.20;;;0.90;;
37777;SDS011;23615;51.506;7.678;2022-09-25T09:11:33;4.10;;;0.95;;
37777;SDS011;23615;51.506;7.678;2022-09-25T09:14:05;3.00;;;0.60;;
37777;SDS011;23615;51.506;7.678;2022-09-25T09:19:29;3.72;;;0.82;;
37777;SDS011;23615;51.506;7.678;2022-09-25T09:22:08;2.90;;;0.50;;
37777;SDS011;23615;51.506;7.678;2022-09-25T09:30:13;3.83;;;0.82;;
37777;SDS011;23615;51.506;7.678;2022-09-25T09:44:06;4.28;;;0.50;;
37777;SDS011;23615;51.506;7.678;2022-09-25T09:46:46;2.85;;;0.20;;
37777;SDS011;23615;51.506;7.678;2022-09-25T09:54:43;5.18;;;0.47;;
37777;SDS011;23615;51.506;7.678;2022-09-25T09:57:16;6.47;;;0.70;;
37777;SDS011;23615;51.506;7.678;2022-09-25T09:59:50;5.03;;;0.77;;
37777;SDS011;23615;51.506;7.678;2022-09-25T10:05:29;2.45;;;0.38;;
37777;SDS011;23615;51.506;7.678;2022-09-25T10:07:57;2.63;;;0.60;;
37777;SDS011;23615;51.506;7.678;2022-09-25T10:10:33;5.32;;;0.70;;
37777;SDS011;23615;51.506;7.678;2022-09-25T10:13:01;3.50;;;0.40;;
37777;SDS011;23615;51.506;7.678;2022-09-25T10:15:31;3.28;;;0.47;;
37777;SDS011;23615;51.506;7.678;2022-09-25T10:18:00;2.58;;;0.28;;
37777;SDS011;23615;51.506;7.678;2022-09-25T10:20:41;4.15;;;0.70;;
37777;SDS011;23615;51.506;7.678;2022-09-25T10:23:37;2.67;;;0.20;;
37777;SDS011;23615;51.506;7.678;2022-09-25T10:26:21;3.58;;;0.50;;
37777;SDS011;23615;51.506;7.678;2022-09-25T10:28:48;2.33;;;0.20;;
37777;SDS011;23615;51.506;7.678;2022-09-25T10:31:15;3.70;;;0.45;;
37777;SDS011;23615;51.506;7.678;2022-09-25T10:33:43;3.15;;;0.35;;
37777;SDS011;23615;51.506;7.678;2022-09-25T10:36:36;3.50;;;0.45;;
37777;SDS011;23615;51.506;7.678;2022-09-25T10:39:22;3.38;;;0.30;;
37777;SDS011;23615;51.506;7.678;2022-09-25T10:41:53;2.50;;;0.47;;
37777;SDS011;23615;51.506;7.678;2022-09-25T10:44:22;2.23;;;0.20;;
37777;SDS011;23615;51.506;7.678;2022-09-25T10:46:53;2.60;;;0.43;;
37777;SDS011;23615;51.506;7.678;2022-09-25T10:49:46;0.87;;;0.60;;
37777;SDS011;23615;51.506;7.678;2022-09-25T10:52:43;1.55;;;0.28;;
37777;SDS011;23615;51.506;7.678;2022-09-25T10:57:51;1.27;;;0.10;;
37777;SDS011;23615;51.506;7.678;2022-09-25T11:00:22;1.80;;;0.20;;
37777;SDS011;23615;51.506;7.678;2022-09-25T11:02:49;3.07;;;0.33;;
37777;SDS011;23615;51.506;7.678;2022-09-25T11:05:19;2.58;;;0.40;;
37777;SDS011;23615;51.506;7.678;2022-09-25T11:07:51;2.87;;;0.20;;
37777;SDS011;23615;51.506;7.678;2022-09-25T11:10:20;1.25;;;0.20;;
37777;SDS011;23615;51.506;7.678;2022-09-25T11:12:47;1.88;;;0.30;;
37777;SDS011;23615;51.506;7.678;2022-09-25T11:15:18;1.73;;;0.50;;
37777;SDS011;23615;51.506;7.678;2022-09-25T11:17:45;2.00;;;0.20;;
37777;SDS011;23615;51.506;7.678;2022-09-25T11:22:40;2.03;;;0.32;;
37777;SDS011;23615;51.506;7.678;2022-09-25T11:28:11;3.85;;;0.20;;
37777;SDS011;23615;51.506;7.678;2022-09-25T11:30:50;2.50;;;0.10;;
37777;SDS011;23615;51.506;7.678;2022-09-25T11:33:24;1.90;;;0.10;;
37777;SDS011;23615;51.506;7.678;2022-09-25T11:36:16;1.77;;;0.17;;
37777;SDS011;23615;51.506;7.678;2022-09-25T11:38:46;3.17;;;0.50;;
37777;SDS011;23615;51.506;7.678;2022-09-25T11:41:42;2.73;;;0.20;;
37777;SDS011;23615;51.506;7.678;2022-09-25T11:49:40;1.70;;;0.20;;
37777;SDS011;23615;51.506;7.678;2022-09-25T11:57:17;0.20;;;0.10;;
37777;SDS011;23615;51.506;7.678;2022-09-25T12:03:02;2.03;;;0.10;;
37777;SDS011;23615;51.506;7.678;2022-09-25T12:13:55;1.90;;;0.20;;
37777;SDS011;23615;51.506;7.678;2022-09-25T12:16:26;2.00;;;0.07;;
37777;SDS011;23615;51.506;7.678;2022-09-25T12:21:54;0.77;;;0.10;;
37777;SDS011;23615;51.506;7.678;2022-09-25T12:30:15;0.32;;;0.10;;
37777;SDS011;23615;51.506;7.678;2022-09-25T12:35:48;1.37;;;0.10;;
37777;SDS011;23615;51.506;7.678;2022-09-25T12:38:26;0.68;;;0.10;;
37777;SDS011;23615;51.506;7.678;2022-09-25T12:43:54;2.10;;;0.20;;
37777;SDS011;23615;51.506;7.678;2022-09-25T12:46:28;0.70;;;0.10;;
37777;SDS011;23615;51.506;7.678;2022-09-25T12:56:41;0.65;;;0.00;;
37777;SDS011;23615;51.506;7.678;2022-09-25T12:59:19;0.73;;;0.13;;
37777;SDS011;23615;51.506;7.678;2022-09-25T13:07:28;0.60;;;0.20;;
37777;SDS011;23615;51.506;7.678;2022-09-25T13:10:02;1.88;;;0.10;;
37777;SDS011;23615;51.506;7.678;2022-09-25T13:12:50;1.08;;;0.10;;
37777;SDS011;23615;51.506;7.678;2022-09-25T13:15:23;1.98;;;0.17;;
37777;SDS011;23615;51.506;7.678;2022-09-25T13:17:54;2.13;;;0.00;;
37777;SDS011;23615;51.506;7.678;2022-09-25T13:22:51;2.05;;;0.30;;
37777;SDS011;23615;51.506;7.678;2022-09-25T13:25:26;0.65;;;0.10;;
37777;SDS011;23615;51.506;7.678;2022-09-25T13:27:51;0.57;;;0.08;;
37777;SDS011;23615;51.506;7.678;2022-09-25T13:30:22;0.82;;;0.00;;
37777;SDS011;23615;51.506;7.678;2022-09-25T13:32:50;0.82;;;0.20;;
37777;SDS011;23615;51.506;7.678;2022-09-25T13:35:18;1.67;;;0.20;;
37777;SDS011;23615;51.506;7.678;2022-09-25T13:37:45;0.43;;;0.03;;
37777;SDS011;23615;51.506;7.678;2022-09-25T13:48:41;1.75;;;0.10;;
37777;SDS011;23615;51.506;7.678;2022-09-25T13:53:50;1.42;;;0.00;;
37777;SDS011;23615;51.506;7.678;2022-09-25T13:56:21;1.38;;;0.00;;
37777;SDS011;23615;51.506;7.678;2022-09-25T13:59:14;0.52;;;0.10;;
37777;SDS011;23615;51.506;7.678;2022-09-25T14:01:46;0.40;;;0.10;;
37777;SDS011;23615;51.506;7.678;2022-09-25T14:04:28;1.58;;;0.30;;
37777;SDS011;23615;51.506;7.678;2022-09-25T14:07:29;1.40;;;0.20;;
37777;SDS011;23615;51.506;7.678;2022-09-25T14:09:55;1.15;;;0.10;;
37777;SDS011;23615;51.506;7.678;2022-09-25T14:12:25;1.25;;;0.20;;
37777;SDS011;23615;51.506;7.678;2022-09-25T14:15:03;0.80;;;0.10;;
37777;SDS011;23615;51.506;7.678;2022-09-25T14:17:32;1.60;;;0.20;;
37777;SDS011;23615;51.506;7.678;2022-09-25T14:20:00;0.53;;;0.07;;
37777;SDS011;23615;51.506;7.678;2022-09-25T14:22:34;0.98;;;0.10;;
37777;SDS011;23615;51.506;7.678;2022-09-25T14:27:53;1.00;;;0.10;;
37777;SDS011;23615;51.506;7.678;2022-09-25T14:30:19;1.10;;;0.20;;
37777;SDS011;23615;51.506;7.678;2022-09-25T14:32:52;1.47;;;0.10;;
37777;SDS011;23615;51.506;7.678;2022-09-25T14:35:31;1.33;;;0.13;;
37777;SDS011;23615;51.506;7.678;2022-09-25T14:44:13;1.00;;;0.00;;
37777;SDS011;23615;51.506;7.678;2022-09-25T14:46:49;1.17;;;0.13;;
37777;SDS011;23615;51.506;7.678;2022-09-25T14:49:25;2.25;;;0.10;;
37777;SDS011;23615;51.506;7.678;2022-09-25T14:51:52;3.00;;;0.30;;
37777;SDS011;23615;51.506;7.678;2022-09-25T14:54:22;1.67;;;0.10;;
37777;SDS011;23615;51.506;7.678;2022-09-25T14:56:54;0.05;;;0.00;;
37777;SDS011;23615;51.506;7.678;2022-09-25T14:59:35;1.50;;;0.20;;
37777;SDS011;23615;51.506;7.678;2022-09-25T15:02:48;2.40;;;0.17;;
37777;SDS011;23615;51.506;7.678;2022-09-25T15:05:47;0.40;;;0.13;;
37777;SDS011;23615;51.506;7.678;2022-09-25T15:07:48;3.15;;;0.10;;
37777;SDS011;23615;51.506;7.678;2022-09-25T15:10:33;1.30;;;0.30;;
37777;SDS011;23615;51.506;7.678;2022-09-25T15:15:47;2.50;;;0.17;;
37777;SDS011;23615;51.506;7.678;2022-09-25T15:18:37;0.77;;;0.10;;
37777;SDS011;23615;51.506;7.678;2022-09-25T15:23:52;1.03;;;0.10;;
37777;SDS011;23615;51.506;7.678;2022-09-25T15:26:19;1.30;;;0.10;;
37777;SDS011;23615;51.506;7.678;2022-09-25T15:28:46;1.08;;;0.08;;
37777;SDS011;23615;51.506;7.678;2022-09-25T15:31:11;1.00;;;0.00;;
37777;SDS011;23615;51.506;7.678;2022-09-25T15:33:37;0.50;;;0.10;;
37777;SDS011;23615;51.506;7.678;2022-09-25T15:36:12;0.90;;;0.10;;
37777;SDS011;23615;51.506;7.678;2022-09-25T15:38:40;1.63;;;0.10;;
37777;SDS011;23615;51.506;7.678;2022-09-25T15:41:06;2.63;;;0.00;;
37777;SDS011;23615;51.506;7.678;2022-09-25T15:43:33;3.70;;;0.45;;
37777;SDS011;23615;51.506;7.678;2022-09-25T15:48:30;1.70;;;0.13;;
37777;SDS011;23615;51.506;7.678;2022-09-25T15:51:01;0.90;;;0.03;;
37777;SDS011;23615;51.506;7.678;2022-09-25T15:53:29;1.97;;;0.10;;
37777;SDS011;23615;51.506;7.678;2022-09-25T15:56:21;0.93;;;0.17;;
37777;SDS011;23615;51.506;7.678;2022-09-25T16:01:29;1.10;;;0.10;;
37777;SDS011;23615;51.506;7.678;2022-09-25T16:04:22;0.80;;;0.10;;
37777;SDS011;23615;51.506;7.678;2022-09-25T16:09:58;1.63;;;0.22;;
37777;SDS011;23615;51.506;7.678;2022-09-25T16:12:28;1.00;;;0.10;;
37777;SDS011;23615;51.506;7.678;2022-09-25T16:14:59;2.75;;;0.15;;
37777;SDS011;23615;51.506;7.678;2022-09-25T16:17:49;0.50;;;0.10;;
37777;SDS011;23615;51.506;7.678;2022-09-25T16:20:27;0.70;;;0.10;;
37777;SDS011;23615;51.506;7.678;2022-09-25T16:22:55;1.00;;;0.10;;
37777;SDS011;23615;51.506;7.678;2022-09-25T16:25:23;0.65;;;0.10;;
37777;SDS011;23615;51.506;7.678;2022-09-25T16:28:01;1.38;;;0.20;;
37777;SDS011;23615;51.506;7.678;2022-09-25T16:30:29;0.80;;;0.13;;
37777;SDS011;23615;51.506;7.678;2022-09-25T16:32:57;0.90;;;0.10;;
37777;SDS011;23615;51.506;7.678;2022-09-25T16:35:35;1.02;;;0.10;;
37777;SDS011;23615;51.506;7.678;2022-09-25T16:38:04;0.50;;;0.10;;
37777;SDS011;23615;51.506;7.678;2022-09-25T16:40:30;0.87;;;0.20;;
37777;SDS011;23615;51.506;7.678;2022-09-25T16:43:03;3.85;;;0.30;;
37777;SDS011;23615;51.506;7.678;2022-09-25T16:45:32;1.13;;;0.10;;
37777;SDS011;23615;51.506;7.678;2022-09-25T16:50:54;1.03;;;0.20;;
37777;SDS011;23615;51.506;7.678;2022-09-25T16:53:19;0.90;;;0.10;;
37777;SDS011;23615;51.506;7.678;2022-09-25T16:55:45;1.33;;;0.20;;
37777;SDS011;23615;51.506;7.678;2022-09-25T16:58:12;1.60;;;0.20;;
37777;SDS011;23615;51.506;7.678;2022-09-25T17:00:37;0.95;;;0.20;;
37777;SDS011;23615;51.506;7.678;2022-09-25T17:03:03;1.00;;;0.20;;
37777;SDS011;23615;51.506;7.678;2022-09-25T17:05:28;1.20;;;0.10;;
37777;SDS011;23615;51.506;7.678;2022-09-25T17:07:56;1.00;;;0.20;;
37777;SDS011;23615;51.506;7.678;2022-09-25T17:10:25;1.63;;;0.20;;
37777;SDS011;23615;51.506;7.678;2022-09-25T17:12:53;0.55;;;0.28;;
37777;SDS011;23615;51.506;7.678;2022-09-25T17:15:25;0.32;;;0.10;;
37777;SDS011;23615;51.506;7.678;2022-09-25T17:17:56;1.27;;;0.30;;
37777;SDS011;23615;51.506;7.678;2022-09-25T17:20:24;0.50;;;0.13;;
37777;SDS011;23615;51.506;7.678;2022-09-25T17:22:51;1.30;;;0.28;;
37777;SDS011;23615;51.506;7.678;2022-09-25T17:25:20;1.75;;;0.20;;
37777;SDS011;23615;51.506;7.678;2022-09-25T17:28:00;0.95;;;0.13;;
37777;SDS011;23615;51.506;7.678;2022-09-25T17:30:27;0.32;;;0.10;;
37777;SDS011;23615;51.506;7.678;2022-09-25T17:32:52;0.80;;;0.20;;
37777;SDS011;23615;51.506;7.678;2022-09-25T17:35:26;0.67;;;0.10;;
37777;SDS011;23615;51.506;7.678;2022-09-25T17:37:58;1.63;;;0.30;;
37777;SDS011;23615;51.506;7.678;2022-09-25T17:40:25;0.50;;;0.20;;
37777;SDS011;23615;51.506;7.678;2022-09-25T17:42:52;1.15;;;0.17;;
37777;SDS011;23615;51.506;7.678;2022-09-25T17:45:31;0.80;;;0.10;;
37777;SDS011;23615;51.506;7.678;2022-09-25T17:48:01;0.50;;;0.10;;